Time;durP1;ratioP1;P1;durP2;ratioP2;P2;SDS_P1;SDS_P2;PMS_P1;PMS_P2;Temp;Humidity;BMP_temperature;BMP_pressure;BME280_temperature;BME280_humidity;BME280_pressure;Samples;Min_cycle;Max_cycle;Signal;HPM_P1;HPM_P2
2023/06/18 00:00:36;;;;;;;24.73;16.02;;;;;;;18.67;65.55;101142.06;5052975;28;20033;-44
2023/06/18 00:03:01;;;;;;;18.42;15.07;;;;;;;18.50;68.17;101139.44;5054123;28;20031;-43
2023/06/18 00:05:26;;;;;;;20.50;15.45;;;;;;;18.51;65.98;101141.19;5053620;28;20032;-45
2023/06/18 00:07:52;;;;;;;23.40;15.52;;;;;;;18.51;66.19;101144.66;5053214;28;20036;-45
2023/06/18 00:10:18;;;;;;;22.80;14.82;;;;;;;18.42;66.37;101148.16;5053839;28;20028;-49
2023/06/18 00:12:43;;;;;;;26.50;16.63;;;;;;;18.30;67.62;101153.34;5053339;28;20385;-44
2023/06/18 00:15:09;;;;;;;25.40;16.10;;;;;;;18.21;68.02;101138.50;5052958;28;20036;-47
2023/06/18 00:17:35;;;;;;;22.27;16.45;;;;;;;18.27;67.66;101141.16;5053375;28;20104;-43
2023/06/18 00:20:00;;;;;;;23.02;16.52;;;;;;;18.16;68.72;101136.78;5053251;28;20041;-46
2023/06/18 00:22:26;;;;;;;22.15;15.82;;;;;;;18.10;69.36;101138.50;5052568;28;20407;-47
2023/06/18 00:24:52;;;;;;;24.58;16.10;;;;;;;18.06;69.25;101143.69;5053472;28;20017;-43
2023/06/18 00:27:17;;;;;;;22.33;15.77;;;;;;;18.10;70.32;101141.09;5053463;28;20473;-48
2023/06/18 00:29:47;;;;;;;20.75;14.98;;;;;;;17.98;70.24;101141.06;5052307;28;20075;-47
2023/06/18 00:32:14;;;;;;;24.88;17.05;;;;;;;17.92;70.35;101141.88;5053536;28;20017;-45
2023/06/18 00:34:41;;;;;;;21.75;16.58;;;;;;;17.88;71.26;101136.63;5053055;28;20460;-46
2023/06/18 00:37:09;;;;;;;22.65;16.23;;;;;;;17.81;72.20;101137.50;5052691;28;20036;-44
2023/06/18 00:39:35;;;;;;;21.17;15.90;;;;;;;17.80;70.98;101140.97;5053063;28;20063;-43
2023/06/18 00:42:01;;;;;;;24.98;16.00;;;;;;;17.86;71.30;101133.16;5053085;28;20033;-46
2023/06/18 00:44:26;;;;;;;28.05;17.00;;;;;;;17.84;71.33;101124.47;5052074;28;20028;-45
2023/06/18 00:46:56;;;;;;;25.77;16.67;;;;;;;17.80;71.29;101117.50;5053185;28;20031;-43
2023/06/18 00:49:22;;;;;;;23.90;16.52;;;;;;;17.70;71.91;101117.47;5053011;28;20491;-44
2023/06/18 00:51:48;;;;;;;25.65;17.08;;;;;;;17.67;71.91;101114.81;5052415;28;20048;-44
2023/06/18 00:54:15;;;;;;;24.45;17.50;;;;;;;17.55;72.61;101114.78;5053024;28;20047;-44
2023/06/18 00:56:50;;;;;;;26.73;18.33;;;;;;;17.53;72.85;101113.88;5052821;28;20380;-44
2023/06/18 00:59:21;;;;;;;24.45;16.90;;;;;;;17.44;74.55;101118.19;5053173;28;20045;-46
2023/06/18 01:01:47;;;;;;;22.13;16.70;;;;;;;17.53;73.54;101113.88;5052615;28;20479;-43
2023/06/18 01:04:13;;;;;;;23.30;17.83;;;;;;;17.52;73.27;101112.16;5052341;28;20033;-45
2023/06/18 01:06:39;;;;;;;23.75;17.48;;;;;;;17.51;73.83;101105.22;5052540;28;20147;-43
2023/06/18 01:09:05;;;;;;;26.33;18.10;;;;;;;17.42;74.33;101109.50;5052651;28;20473;-45
2023/06/18 01:11:33;;;;;;;23.85;17.55;;;;;;;17.31;75.82;101105.94;5051940;28;20031;-45
2023/06/18 01:13:59;;;;;;;24.77;18.48;;;;;;;17.21;76.83;101105.03;5052663;28;20021;-44
2023/06/18 01:16:24;;;;;;;25.50;19.13;;;;;;;17.17;76.76;101108.50;5052667;28;20082;-43
2023/06/18 01:18:51;;;;;;;26.05;17.98;;;;;;;17.22;76.65;101111.09;5052043;28;20025;-44
2023/06/18 01:21:20;;;;;;;24.23;18.90;;;;;;;17.17;76.76;101107.59;5052585;28;20037;-43
2023/06/18 01:23:52;;;;;;;26.80;19.50;;;;;;;17.17;76.37;101107.59;5052303;28;20056;-45
2023/06/18 01:26:21;;;;;;;28.95;19.52;;;;;;;17.12;77.01;101105.00;5051999;28;20033;-44
2023/06/18 01:28:58;;;;;;;24.70;17.70;;;;;;;17.11;77.32;101103.25;5052537;28;20140;-44
2023/06/18 01:31:24;;;;;;;24.95;19.08;;;;;;;17.03;77.18;101105.78;5052448;28;20025;-44
2023/06/18 01:33:53;;;;;;;27.95;18.40;;;;;;;16.91;77.97;101103.97;5054697;28;20098;-45
2023/06/18 01:37:01;;;;;;;27.17;19.80;;;;;;;16.93;77.17;101110.03;5056578;28;20025;-44
2023/06/18 01:39:35;;;;;;;25.17;19.58;;;;;;;16.76;79.44;101102.06;5049673;28;20183;-48
2023/06/18 01:42:16;;;;;;;27.85;19.58;;;;;;;16.68;79.37;101108.97;5056764;28;20036;-45
2023/06/18 01:44:45;;;;;;;26.02;19.42;;;;;;;16.74;79.66;101095.97;5056152;28;20025;-44
2023/06/18 01:47:13;;;;;;;27.73;19.60;;;;;;;16.59;80.12;101085.44;5055990;28;20028;-46
2023/06/18 01:49:40;;;;;;;34.55;20.08;;;;;;;16.51;80.67;101085.38;5056320;28;20048;-46
2023/06/18 01:52:08;;;;;;;28.08;21.23;;;;;;;16.54;80.72;101087.13;5056450;28;20021;-43
2023/06/18 01:54:35;;;;;;;29.02;20.50;;;;;;;16.56;80.79;101088.03;5055253;28;20457;-45
2023/06/18 01:57:01;;;;;;;28.15;20.10;;;;;;;16.54;80.13;101090.63;5056191;28;20036;-43
2023/06/18 01:59:26;;;;;;;27.65;21.10;;;;;;;16.54;80.78;101089.72;5055914;28;20029;-45
2023/06/18 02:01:51;;;;;;;27.88;21.13;;;;;;;16.43;80.84;101080.09;5055672;28;20480;-46
2023/06/18 02:04:17;;;;;;;29.65;21.30;;;;;;;16.43;80.52;101085.31;5056201;28;20047;-44
2023/06/18 02:06:42;;;;;;;28.13;21.38;;;;;;;16.38;81.11;101088.72;5055852;28;20041;-44
2023/06/18 02:09:08;;;;;;;33.80;22.45;;;;;;;16.20;82.42;101081.63;5055507;28;20028;-47
2023/06/18 02:11:34;;;;;;;30.52;22.00;;;;;;;16.19;82.44;101087.66;5055739;28;20388;-44
2023/06/18 02:13:59;;;;;;;30.23;22.10;;;;;;;16.16;82.19;101079.84;5056149;28;20387;-44
2023/06/18 02:16:25;;;;;;;30.95;22.27;;;;;;;16.17;82.15;101077.25;5055094;28;20104;-45
2023/06/18 02:18:50;;;;;;;30.98;20.92;;;;;;;16.20;82.40;101069.47;5056033;28;20021;-46
2023/06/18 02:21:15;;;;;;;29.30;20.70;;;;;;;16.15;82.27;101072.91;5055005;28;20068;-43
2023/06/18 02:23:40;;;;;;;33.10;22.27;;;;;;;16.17;82.25;101074.66;5055624;28;20025;-46
2023/06/18 02:26:08;;;;;;;29.25;22.15;;;;;;;16.16;82.52;101077.25;5055891;28;20037;-43
2023/06/18 02:28:34;;;;;;;26.25;21.15;;;;;;;16.10;82.11;101075.44;5054591;28;20477;-45
2023/06/18 02:30:59;;;;;;;27.35;21.48;;;;;;;16.07;83.21;101070.22;5055667;28;20051;-43
2023/06/18 02:33:25;;;;;;;28.55;22.55;;;;;;;15.90;83.35;101070.03;5055441;28;20030;-45
2023/06/18 02:35:50;;;;;;;31.83;23.30;;;;;;;15.85;83.33;101069.13;5054992;28;20039;-45
2023/06/18 02:38:16;;;;;;;30.88;23.52;;;;;;;15.80;83.26;101072.50;5055524;28;20025;-43
2023/06/18 02:40:41;;;;;;;30.38;23.65;;;;;;;15.86;83.68;101068.28;5055338;28;20082;-44
2023/06/18 02:43:08;;;;;;;28.00;22.58;;;;;;;15.80;83.43;101064.72;5054346;28;20052;-45
2023/06/18 02:45:34;;;;;;;30.38;23.38;;;;;;;15.68;84.52;101061.94;5055081;28;20070;-44
2023/06/18 02:47:59;;;;;;;33.58;23.67;;;;;;;15.67;84.98;101056.75;5055420;28;20103;-43
2023/06/18 02:50:24;;;;;;;30.40;24.02;;;;;;;15.60;84.90;101058.41;5054387;28;20100;-44
2023/06/18 02:52:50;;;;;;;28.42;22.23;;;;;;;15.62;84.76;101061.88;5055304;28;20186;-45
2023/06/18 02:55:15;;;;;;;33.85;22.75;;;;;;;15.58;86.06;101062.69;5055067;28;20024;-43
2023/06/18 02:57:41;;;;;;;30.83;23.13;;;;;;;15.63;85.87;101058.44;5054125;28;20481;-44
2023/06/18 03:00:14;;;;;;;30.67;22.65;;;;;;;15.57;85.70;101068.75;5055095;28;20025;-48
2023/06/18 03:02:43;;;;;;;32.72;22.90;;;;;;;15.38;87.27;101065.06;5054942;28;20040;-43
2023/06/18 03:05:09;;;;;;;30.67;24.33;;;;;;;15.30;87.83;101062.34;5054282;28;21938;-44
2023/06/18 03:07:34;;;;;;;30.83;23.95;;;;;;;15.19;88.16;101064.78;5054729;28;20104;-44
2023/06/18 03:10:00;;;;;;;47.28;25.27;;;;;;;15.12;88.60;101063.84;5054828;28;20033;-46
2023/06/18 03:12:26;;;;;;;29.95;25.08;;;;;;;15.06;89.10;101063.75;5053733;28;20029;-43
2023/06/18 03:14:51;;;;;;;29.77;24.27;;;;;;;15.15;88.95;101063.88;5054957;28;20465;-46
2023/06/18 03:17:16;;;;;;;32.35;24.90;;;;;;;15.19;89.23;101069.13;5054671;28;20013;-46
2023/06/18 03:19:42;;;;;;;31.55;25.15;;;;;;;15.14;89.56;101072.53;5053335;28;20035;-48
2023/06/18 03:22:07;;;;;;;33.67;24.58;;;;;;;15.22;89.20;101071.75;5055003;28;20108;-43
2023/06/18 03:24:33;;;;;;;32.28;25.15;;;;;;;15.23;89.31;101065.72;5053515;28;20032;-44
2023/06/18 03:26:59;;;;;;;32.92;24.75;;;;;;;15.24;89.36;101068.31;5054679;28;20461;-45
2023/06/18 03:29:25;;;;;;;33.00;24.33;;;;;;;15.24;89.26;101067.47;5054439;28;20029;-43
2023/06/18 03:31:53;;;;;;;36.35;25.90;;;;;;;15.24;89.52;101068.31;5053632;28;20385;-43
2023/06/18 03:34:20;;;;;;;29.90;23.27;;;;;;;15.21;89.75;101068.28;5054495;28;20465;-44
2023/06/18 03:36:46;;;;;;;;;;;;;;;15.34;86.03;101074.53;5054540;28;20131;-48
2023/06/18 03:39:12;;;;;;;33.15;25.92;;;;;;;15.23;89.50;101074.34;5053636;28;20301;-44
2023/06/18 03:41:38;;;;;;;32.95;25.02;;;;;;;15.23;89.53;101065.72;5054219;28;20021;-43
2023/06/18 03:44:03;;;;;;;33.13;26.15;;;;;;;15.14;90.20;101071.63;5054385;28;20092;-43
2023/06/18 03:46:29;;;;;;;33.83;26.92;;;;;;;15.13;90.15;101070.78;5053220;28;20120;-43
2023/06/18 03:48:55;;;;;;;36.45;27.63;;;;;;;15.07;91.12;101075.00;5054243;28;20025;-43
2023/06/18 03:51:20;;;;;;;32.95;26.58;;;;;;;15.08;91.26;101064.66;5054208;28;20123;-48
2023/06/18 03:53:45;;;;;;;34.50;26.48;;;;;;;15.10;91.39;101073.31;5053090;28;20384;-49
2023/06/18 03:56:11;;;;;;;38.67;27.88;;;;;;;15.06;92.44;101076.72;5053352;28;20036;-48
2023/06/18 03:58:36;;;;;;;33.38;27.60;;;;;;;15.11;92.06;101077.66;5054021;28;20028;-45
2023/06/18 04:01:01;;;;;;;37.47;28.50;;;;;;;15.19;92.47;101084.69;5053283;28;20091;-47
2023/06/18 04:03:27;;;;;;;40.33;29.27;;;;;;;15.16;92.74;101085.53;5053497;28;20017;-44
2023/06/18 04:05:52;;;;;;;40.45;28.98;;;;;;;15.15;92.81;101084.63;5053879;28;20033;-44
2023/06/18 04:08:18;;;;;;;39.25;30.20;;;;;;;15.16;93.32;101085.53;5053037;28;20163;-43
2023/06/18 04:10:44;;;;;;;35.88;28.38;;;;;;;15.23;92.96;101083.88;5053601;28;20468;-45
2023/06/18 04:13:15;;;;;;;39.42;28.38;;;;;;;15.30;92.57;101088.31;5054025;28;20023;-43
2023/06/18 04:15:41;;;;;;;39.75;29.35;;;;;;;15.37;92.94;101090.13;5052564;28;20380;-44
2023/06/18 04:18:07;;;;;;;38.63;28.30;;;;;;;15.40;92.84;101087.59;5053670;28;20101;-45
2023/06/18 04:20:32;;;;;;;38.88;28.73;;;;;;;15.38;93.43;101088.44;5053007;28;20124;-44
2023/06/18 04:22:57;;;;;;;36.53;29.92;;;;;;;15.42;93.34;101087.63;5052624;28;20029;-48
2023/06/18 04:25:22;;;;;;;36.28;28.73;;;;;;;15.44;93.67;101086.78;5053045;28;20027;-45
2023/06/18 04:27:48;;;;;;;36.65;29.77;;;;;;;15.47;93.71;101092.00;5052880;28;20033;-43
2023/06/18 04:30:13;;;;;;;35.92;28.80;;;;;;;15.45;94.98;101085.94;5053228;28;20071;-45
2023/06/18 04:32:38;;;;;;;35.95;29.98;;;;;;;15.48;95.14;101088.56;5053119;28;20032;-47
2023/06/18 04:35:04;;;;;;;40.42;31.17;;;;;;;15.50;95.80;101090.31;5052530;28;20423;-44
2023/06/18 04:37:30;;;;;;;40.55;30.55;;;;;;;15.53;94.99;101087.75;5052819;28;20028;-43
2023/06/18 04:39:56;;;;;;;40.05;31.55;;;;;;;15.54;96.68;101081.69;5053448;28;20021;-47
2023/06/18 04:42:21;;;;;;;44.85;32.72;;;;;;;15.66;94.83;101087.06;5052303;28;20025;-44
2023/06/18 04:44:46;;;;;;;40.47;32.03;;;;;;;15.71;95.90;101090.59;5053037;28;20090;-43
2023/06/18 04:47:12;;;;;;;42.30;33.10;;;;;;;15.76;95.44;101082.84;5053125;28;20163;-45
2023/06/18 04:49:37;;;;;;;42.78;32.70;;;;;;;15.82;95.83;101085.53;5052174;28;20354;-43
2023/06/18 04:52:03;;;;;;;45.45;33.30;;;;;;;15.83;96.48;101089.00;5052955;28;20025;-43
2023/06/18 04:54:28;;;;;;;45.78;34.42;;;;;;;15.87;97.27;101080.38;5052827;28;20458;-44
2023/06/18 04:56:55;;;;;;;46.05;35.95;;;;;;;15.91;95.82;101077.84;5052339;28;20361;-45
2023/06/18 04:59:20;;;;;;;45.87;36.10;;;;;;;16.01;95.03;101078.84;5052828;28;20373;-44
2023/06/18 05:01:45;;;;;;;51.42;38.65;;;;;;;16.10;95.00;101083.25;5052718;28;20032;-43
2023/06/18 05:04:11;;;;;;;52.42;37.22;;;;;;;16.18;95.04;101080.72;5052175;28;20028;-43
2023/06/18 05:06:37;;;;;;;45.97;37.55;;;;;;;16.28;95.21;101080.84;5052087;28;20425;-43
2023/06/18 05:09:03;;;;;;;55.85;39.65;;;;;;;16.30;94.88;101080.84;5053073;28;20576;-45
2023/06/18 05:11:29;;;;;;;50.97;38.70;;;;;;;16.41;93.38;101079.22;5052251;28;20032;-49
2023/06/18 05:13:54;;;;;;;47.75;36.25;;;;;;;16.54;89.85;101082.81;5052704;28;20033;-43
2023/06/18 05:16:19;;;;;;;49.03;36.47;;;;;;;16.62;89.65;101077.69;5052682;28;20052;-44
2023/06/18 05:18:45;;;;;;;52.03;37.63;;;;;;;16.72;86.37;101083.81;5051591;28;20017;-45
2023/06/18 05:21:10;;;;;;;52.75;39.38;;;;;;;16.83;89.12;101089.97;5052411;28;20099;-42
2023/06/18 05:23:35;;;;;;;54.70;39.15;;;;;;;16.94;88.84;101087.50;5052347;28;20123;-45
2023/06/18 05:26:01;;;;;;;56.15;40.00;;;;;;;17.04;87.40;101091.03;5051975;28;20098;-44
2023/06/18 05:28:27;;;;;;;55.08;41.25;;;;;;;17.14;87.33;101092.81;5052244;28;20377;-44
2023/06/18 05:30:52;;;;;;;60.17;41.78;;;;;;;17.28;79.60;101095.53;5052697;28;20016;-45
2023/06/18 05:33:17;;;;;;;61.00;40.65;;;;;;;17.41;78.41;101101.69;5051900;28;20028;-45
2023/06/18 05:35:43;;;;;;;54.90;41.97;;;;;;;17.55;77.77;101102.63;5052229;28;20025;-44
2023/06/18 05:38:08;;;;;;;58.58;41.92;;;;;;;17.72;77.76;101105.28;5051989;28;20446;-44
2023/06/18 05:40:33;;;;;;;59.83;44.60;;;;;;;17.89;77.89;101105.34;5052353;28;20028;-43
2023/06/18 05:42:58;;;;;;;58.00;43.17;;;;;;;18.08;76.06;101106.31;5052615;28;20381;-43
2023/06/18 05:45:24;;;;;;;58.85;45.95;;;;;;;18.20;75.16;101102.00;5051399;28;20796;-44
2023/06/18 05:47:49;;;;;;;58.20;44.80;;;;;;;18.54;72.97;101099.41;5052473;28;20021;-46
2023/06/18 05:50:14;;;;;;;59.78;44.58;;;;;;;18.62;72.50;101102.94;5052510;28;20052;-44
2023/06/18 05:52:40;;;;;;;54.75;42.55;;;;;;;18.81;68.09;101106.41;5051253;28;20029;-44
2023/06/18 05:55:08;;;;;;;60.10;43.63;;;;;;;18.95;68.91;101110.78;5052350;28;20529;-48
2023/06/18 05:57:34;;;;;;;57.47;39.83;;;;;;;19.08;66.60;101104.66;5051959;28;20456;-44
2023/06/18 05:59:59;;;;;;;51.53;39.33;;;;;;;19.18;65.95;101102.91;5051744;28;20047;-47
2023/06/18 06:02:25;;;;;;;57.25;37.08;;;;;;;19.23;64.67;101109.00;5052032;28;20021;-43
2023/06/18 06:04:50;;;;;;;51.00;38.08;;;;;;;19.25;64.21;101115.09;5052382;28;20429;-44
2023/06/18 06:07:15;;;;;;;49.85;36.45;;;;;;;19.34;63.92;101115.06;5051447;28;20036;-43
2023/06/18 06:09:40;;;;;;;51.95;37.35;;;;;;;19.40;64.12;101109.81;5051921;28;20421;-45
2023/06/18 06:12:08;;;;;;;51.35;37.58;;;;;;;19.46;63.21;101108.06;5052424;28;20071;-43
2023/06/18 06:14:33;;;;;;;54.97;37.55;;;;;;;19.52;64.37;101108.03;5051197;28;20057;-44
2023/06/18 06:16:58;;;;;;;49.60;35.30;;;;;;;19.69;63.28;101113.19;5052378;28;20457;-46
2023/06/18 06:19:25;;;;;;;52.00;34.92;;;;;;;19.82;63.00;101116.66;5053623;28;20025;-46
2023/06/18 06:21:50;;;;;;;53.77;35.27;;;;;;;20.04;62.92;101109.59;5054916;28;20112;-48
2023/06/18 06:24:16;;;;;;;51.20;34.35;;;;;;;20.24;61.63;101125.16;5055601;28;20171;-44
2023/06/18 06:26:41;;;;;;;48.65;32.40;;;;;;;20.50;61.75;101114.53;5055521;28;20036;-45
2023/06/18 06:29:07;;;;;;;42.63;31.98;;;;;;;20.81;60.92;101116.97;5055159;28;20103;-46
2023/06/18 06:31:32;;;;;;;46.17;31.67;;;;;;;20.98;58.51;101114.19;5055416;28;20028;-45
2023/06/18 06:33:57;;;;;;;44.30;28.17;;;;;;;21.36;56.91;101112.91;5055831;28;20025;-45
2023/06/18 06:36:23;;;;;;;39.28;27.60;;;;;;;21.28;54.54;101117.38;5054481;28;20036;-44
2023/06/18 06:38:48;;;;;;;39.55;27.17;;;;;;;21.29;53.98;101121.72;5055665;28;20033;-43
2023/06/18 06:41:13;;;;;;;37.53;25.10;;;;;;;21.47;54.56;101122.41;5055546;28;20039;-44
2023/06/18 06:43:39;;;;;;;34.45;23.52;;;;;;;21.41;53.34;101133.84;5054556;28;20483;-44
2023/06/18 06:46:04;;;;;;;29.40;21.95;;;;;;;21.32;54.20;101150.53;5055451;28;20024;-42
2023/06/18 06:48:30;;;;;;;29.80;23.05;;;;;;;21.21;53.66;101183.84;5054372;28;20131;-42
2023/06/18 06:50:55;;;;;;;40.28;25.48;;;;;;;21.04;54.82;101187.50;5055209;28;20025;-44
2023/06/18 06:53:20;;;;;;;36.40;24.92;;;;;;;21.01;57.66;101171.78;5055598;28;20036;-43
2023/06/18 06:55:46;;;;;;;38.92;26.52;;;;;;;20.97;56.04;101158.75;5054328;28;20025;-44
2023/06/18 06:58:11;;;;;;;38.08;24.60;;;;;;;20.96;55.15;101160.47;5055122;28;20039;-47
2023/06/18 07:00:36;;;;;;;40.83;25.42;;;;;;;20.94;55.69;101167.50;5054861;28;20021;-44
2023/06/18 07:03:02;;;;;;;35.45;24.63;;;;;;;20.99;55.63;101170.06;5054335;28;20420;-47
2023/06/18 07:05:28;;;;;;;37.90;23.92;;;;;;;21.06;55.84;101169.13;5054534;28;20037;-45
2023/06/18 07:07:53;;;;;;;43.80;24.55;;;;;;;21.21;56.13;101178.59;5055082;28;20385;-44
2023/06/18 07:10:18;;;;;;;37.40;23.48;;;;;;;21.36;56.20;101180.22;5054290;28;20052;-44
2023/06/18 07:12:44;;;;;;;35.70;22.50;;;;;;;21.42;55.86;101181.88;5054785;28;20025;-44
2023/06/18 07:15:09;;;;;;;33.95;21.80;;;;;;;21.54;55.31;101166.03;5054949;28;20096;-44
2023/06/18 07:17:34;;;;;;;35.22;18.85;;;;;;;21.82;54.91;101170.97;5053791;28;20021;-44
2023/06/18 07:20:00;;;;;;;30.85;18.70;;;;;;;21.86;50.73;101175.34;5054443;28;20049;-47
2023/06/18 07:22:25;;;;;;;28.85;17.73;;;;;;;21.95;50.96;101176.94;5054628;28;20436;-45
2023/06/18 07:24:50;;;;;;;25.83;15.88;;;;;;;22.10;50.18;101174.13;5054091;28;20033;-45
2023/06/18 07:27:16;;;;;;;27.70;16.15;;;;;;;22.14;49.95;101177.59;5054670;28;20029;-44
2023/06/18 07:29:41;;;;;;;24.55;14.50;;;;;;;22.28;48.94;101169.53;5054209;28;20021;-50
2023/06/18 07:32:07;;;;;;;27.05;15.43;;;;;;;22.27;48.83;101168.69;5053869;28;20481;-44
2023/06/18 07:34:32;;;;;;;25.52;14.68;;;;;;;22.17;47.32;101161.81;5054341;28;20032;-44
2023/06/18 07:36:57;;;;;;;24.17;14.27;;;;;;;22.23;48.16;101160.84;5054433;28;20377;-44
2023/06/18 07:39:22;;;;;;;23.70;14.43;;;;;;;22.27;46.93;101163.41;5053471;28;20178;-46
2023/06/18 07:41:49;;;;;;;22.17;13.65;;;;;;;22.28;47.02;101169.53;5054536;28;20025;-44
2023/06/18 07:44:14;;;;;;;22.23;13.63;;;;;;;22.35;47.42;101171.19;5054553;28;20017;-44
2023/06/18 07:46:42;;;;;;;20.85;13.50;;;;;;;22.33;47.53;101163.31;5053200;28;20032;-47
2023/06/18 07:49:07;;;;;;;;;;;;;;;22.60;48.25;101174.34;5054542;28;20092;-45
2023/06/18 07:51:33;;;;;;;20.70;14.15;;;;;;;22.57;46.56;101161.25;5054140;28;19966;-44
2023/06/18 07:53:58;;;;;;;24.08;14.25;;;;;;;22.66;47.41;101161.13;5053631;28;20025;-44
2023/06/18 07:56:26;;;;;;;32.10;13.68;;;;;;;22.89;47.61;101159.84;5053694;28;20029;-45
2023/06/18 07:58:51;;;;;;;20.17;13.75;;;;;;;23.00;47.09;101160.53;5053258;28;20461;-44
2023/06/18 08:01:16;;;;;;;24.05;14.15;;;;;;;23.20;47.06;101153.25;5054078;28;20095;-45
2023/06/18 08:03:42;;;;;;;20.92;13.80;;;;;;;23.22;47.48;101160.22;5053550;28;20033;-44
2023/06/18 08:06:07;;;;;;;24.13;13.60;;;;;;;23.33;47.97;101158.25;5052970;28;20064;-44
2023/06/18 08:08:32;;;;;;;28.38;15.27;;;;;;;23.27;47.59;101155.72;5053536;28;20333;-44
2023/06/18 08:10:57;;;;;;;22.08;14.05;;;;;;;23.37;47.33;101152.91;5053804;28;20099;-47
2023/06/18 08:13:23;;;;;;;24.63;15.17;;;;;;;23.35;47.60;101155.59;5052834;28;20105;-44
2023/06/18 08:15:48;;;;;;;19.30;12.77;;;;;;;23.44;48.26;101157.19;5053584;28;20276;-45
2023/06/18 08:18:13;;;;;;;23.40;13.25;;;;;;;23.48;48.02;101156.22;5053619;28;20101;-44
2023/06/18 08:20:39;;;;;;;22.52;13.40;;;;;;;23.54;48.26;101156.09;5052109;28;20493;-48
2023/06/18 08:23:04;;;;;;;21.50;14.48;;;;;;;23.52;47.96;101157.88;5053641;28;20053;-43
2023/06/18 08:25:29;;;;;;;22.50;13.93;;;;;;;23.63;47.98;101150.66;5053305;28;20055;-44
2023/06/18 08:27:56;;;;;;;24.20;13.93;;;;;;;23.58;48.32;101152.50;5052498;28;20271;-45
2023/06/18 08:30:22;;;;;;;20.95;13.60;;;;;;;23.84;49.56;101153.75;5053238;28;20501;-44
2023/06/18 08:32:47;;;;;;;17.33;13.80;;;;;;;24.00;48.64;101155.19;5053325;28;20539;-43
2023/06/18 08:35:13;;;;;;;24.73;13.52;;;;;;;23.95;48.39;101151.78;5052536;28;20021;-43
2023/06/18 08:37:38;;;;;;;24.42;14.00;;;;;;;23.96;48.67;101148.28;5052878;28;20029;-45
2023/06/18 08:40:04;;;;;;;22.42;13.65;;;;;;;23.92;49.51;101146.56;5053253;28;20025;-42
2023/06/18 08:42:30;;;;;;;23.05;13.73;;;;;;;23.87;48.50;101140.50;5051585;28;20021;-48
2023/06/18 08:44:55;;;;;;;19.85;13.48;;;;;;;23.80;49.30;101147.69;5053173;28;20031;-44
2023/06/18 08:47:21;;;;;;;17.80;13.13;;;;;;;23.81;49.42;101148.56;5053047;28;20056;-48
2023/06/18 08:49:50;;;;;;;17.63;12.48;;;;;;;23.83;48.92;101152.91;5052009;28;20025;-46
2023/06/18 08:52:18;;;;;;;24.10;13.32;;;;;;;23.64;50.10;101147.13;5053113;28;20029;-47
2023/06/18 08:54:46;;;;;;;19.05;12.77;;;;;;;23.54;50.24;101145.59;5052614;28;20025;-47
2023/06/18 08:57:24;;;;;;;17.20;12.18;;;;;;;23.51;50.98;101145.63;5052248;28;20056;-47
2023/06/18 08:59:50;;;;;;;20.42;12.50;;;;;;;23.46;52.12;101150.13;5052919;28;20033;-47
2023/06/18 09:02:20;;;;;;;20.37;13.17;;;;;;;23.49;52.80;101150.06;5052012;28;20025;-43
2023/06/18 09:04:46;;;;;;;19.13;12.95;;;;;;;23.54;52.32;101145.59;5052474;28;20538;-44
2023/06/18 09:07:11;;;;;;;22.00;12.57;;;;;;;23.50;53.07;101143.91;5052748;28;20025;-44
2023/06/18 09:09:37;;;;;;;19.50;13.05;;;;;;;23.38;51.75;101144.13;5051809;28;20079;-46
2023/06/18 09:12:02;;;;;;;21.85;12.40;;;;;;;23.30;52.13;101146.91;5052896;28;20162;-46
2023/06/18 09:14:27;;;;;;;18.75;12.57;;;;;;;23.22;52.99;101147.06;5052456;28;20028;-45
2023/06/18 09:16:54;;;;;;;20.85;12.82;;;;;;;23.20;53.91;101148.84;5051813;28;20033;-45
2023/06/18 09:19:20;;;;;;;20.10;13.03;;;;;;;23.24;52.96;101149.66;5052833;28;20021;-47
2023/06/18 09:21:46;;;;;;;18.85;12.80;;;;;;;23.24;54.44;101158.44;5052166;28;20775;-48
2023/06/18 09:24:15;;;;;;;18.02;12.50;;;;;;;23.14;53.66;101157.72;5051967;28;20119;-44
2023/06/18 09:26:41;;;;;;;23.67;13.07;;;;;;;23.21;53.90;101154.97;5052304;28;20039;-44
2023/06/18 09:29:10;;;;;;;18.75;12.82;;;;;;;23.18;53.29;101153.28;5052543;28;20028;-44
2023/06/18 09:31:43;;;;;;;20.05;11.90;;;;;;;23.28;55.04;101154.84;5051820;28;20029;-45
2023/06/18 09:34:13;;;;;;;17.27;12.85;;;;;;;23.20;53.92;101156.72;5052714;28;20053;-45
2023/06/18 09:36:40;;;;;;;22.08;12.88;;;;;;;23.30;53.57;101152.19;5052384;28;20104;-45
2023/06/18 09:39:20;;;;;;;19.17;12.23;;;;;;;23.28;55.62;101157.47;5051878;28;20029;-43
2023/06/18 09:41:47;;;;;;;17.77;12.27;;;;;;;23.27;53.89;101152.25;5052315;28;20029;-44
2023/06/18 09:44:13;;;;;;;18.15;12.70;;;;;;;23.30;54.83;101153.03;5052698;28;20057;-45
2023/06/18 09:46:48;;;;;;;16.00;11.80;;;;;;;23.26;54.38;101150.50;5051618;28;20491;-45
2023/06/18 09:49:17;;;;;;;20.52;12.25;;;;;;;23.27;54.73;101145.22;5052596;28;20060;-45
2023/06/18 09:51:42;;;;;;;19.77;12.30;;;;;;;23.20;55.08;101148.84;5051493;28;20563;-44
2023/06/18 09:54:08;;;;;;;20.13;11.38;;;;;;;23.29;55.26;101156.59;5053954;28;20429;-44
2023/06/18 09:56:34;;;;;;;18.75;11.63;;;;;;;23.17;54.76;101147.13;5056257;28;20025;-45
2023/06/18 09:59:03;;;;;;;22.15;12.75;;;;;;;23.15;56.48;101155.94;5055730;28;20074;-45
2023/06/18 10:01:29;;;;;;;19.90;13.05;;;;;;;23.02;59.31;101153.50;5056116;28;20048;-44
2023/06/18 10:03:55;;;;;;;19.73;12.80;;;;;;;22.84;60.99;101152.06;5056280;28;20400;-44
2023/06/18 10:06:22;;;;;;;21.10;12.98;;;;;;;22.61;61.33;101151.59;5055449;28;20025;-46
2023/06/18 10:08:56;;;;;;;24.02;12.90;;;;;;;22.50;64.80;101149.09;5056093;28;20470;-44
2023/06/18 10:11:21;;;;;;;23.10;14.15;;;;;;;22.38;67.83;101149.31;5056283;28;20025;-45
2023/06/18 10:13:56;;;;;;;18.48;14.10;;;;;;;22.30;68.78;101147.63;5055259;28;20021;-44
2023/06/18 10:16:24;;;;;;;23.20;14.45;;;;;;;22.47;71.35;101149.16;5056079;28;20021;-44
2023/06/18 10:19:13;;;;;;;20.48;14.00;;;;;;;22.56;69.81;101132.41;5055989;28;20025;-46
2023/06/18 10:21:49;;;;;;;23.60;15.98;;;;;;;22.58;73.25;101131.47;5054658;28;20067;-44
2023/06/18 10:24:21;;;;;;;22.50;15.95;;;;;;;22.63;72.40;101121.78;5055923;28;20125;-47
2023/06/18 10:26:46;;;;;;;19.40;16.10;;;;;;;22.64;75.82;101120.84;5054902;28;20035;-44
2023/06/18 10:29:13;;;;;;;21.95;15.63;;;;;;;22.65;71.16;101113.84;5055719;28;20028;-45
2023/06/18 10:31:38;;;;;;;25.50;16.02;;;;;;;22.64;69.84;101114.75;5055473;28;20043;-46
2023/06/18 10:34:05;;;;;;;21.33;15.57;;;;;;;22.75;72.67;101114.56;5054899;28;20460;-45
2023/06/18 10:36:30;;;;;;;18.52;14.35;;;;;;;22.79;67.30;101109.22;5055484;28;20021;-51
2023/06/18 10:38:58;;;;;;;23.02;14.55;;;;;;;22.93;68.71;101106.38;5055803;28;20027;-45
2023/06/18 10:41:23;;;;;;;20.60;15.18;;;;;;;23.07;67.75;101097.34;5054695;28;20041;-46
2023/06/18 10:43:53;;;;;;;20.60;15.23;;;;;;;23.13;64.04;101097.25;5055446;28;20021;-45
2023/06/18 10:46:20;;;;;;;20.80;15.27;;;;;;;23.34;65.83;101093.34;5055248;28;20025;-44
2023/06/18 10:49:17;;;;;;;21.55;15.52;;;;;;;23.57;63.88;101085.00;5054526;28;20025;-46
2023/06/18 10:51:57;;;;;;;19.45;15.32;;;;;;;23.87;62.23;101085.25;5054986;28;20120;-44
2023/06/18 10:54:29;;;;;;;19.40;15.25;;;;;;;23.87;65.24;101074.72;5055102;28;20067;-43
2023/06/18 10:56:55;;;;;;;19.80;15.07;;;;;;;24.22;60.43;101085.38;5054438;28;20489;-46
2023/06/18 10:59:43;;;;;;;20.60;14.68;;;;;;;24.60;59.05;101092.34;5055267;28;20365;-47
2023/06/18 11:02:10;;;;;;;22.50;15.10;;;;;;;24.92;58.49;101092.44;5054426;28;20031;-44
2023/06/18 11:04:35;;;;;;;17.00;14.50;;;;;;;25.49;54.53;101093.56;5054413;28;20021;-47
2023/06/18 11:07:25;;;;;;;20.42;15.25;;;;;;;25.40;53.75;101104.38;5054579;28;20075;-44